createdAt,value
2022-10-19T04:18:31.231Z,14.02
2022-10-19T04:21:03.998Z,13.96
2022-10-19T04:23:34.269Z,13.83
2022-10-19T04:26:03.317Z,13.95
2022-10-19T04:28:31.043Z,14.16
2022-10-19T04:31:02.181Z,14.20
2022-10-19T04:33:29.500Z,14.08
2022-10-19T04:36:04.659Z,14.06
2022-10-19T04:38:32.599Z,14.15
2022-10-19T04:41:11.162Z,14.18
2022-10-19T04:43:38.864Z,14.17
2022-10-19T04:46:08.168Z,14.33
2022-10-19T04:48:37.094Z,14.21
2022-10-19T04:51:05.383Z,14.24
2022-10-19T04:53:33.942Z,14.16
2022-10-19T04:56:05.592Z,14.15
2022-10-19T04:58:32.983Z,14.24
2022-10-19T05:01:00.281Z,14.30
2022-10-19T05:03:27.512Z,14.44
2022-10-19T05:05:54.935Z,14.39
2022-10-19T05:08:22.575Z,14.34
2022-10-19T05:10:50.172Z,14.35
2022-10-19T05:13:17.649Z,14.35
2022-10-19T05:15:55.589Z,14.37
2022-10-19T05:18:24.307Z,14.25
2022-10-19T05:20:52.167Z,14.06
2022-10-19T05:23:19.383Z,13.95
2022-10-19T05:25:46.622Z,13.96
2022-10-19T05:28:13.840Z,13.87
2022-10-19T05:30:45.409Z,13.74
2022-10-19T05:33:15.531Z,13.75
2022-10-19T05:35:42.788Z,13.69
2022-10-19T05:38:13.017Z,13.49
2022-10-19T05:40:48.270Z,13.48
2022-10-19T05:43:18.037Z,13.53
2022-10-19T05:45:45.259Z,13.59
2022-10-19T05:48:13.057Z,13.63
2022-10-19T05:50:40.295Z,13.66
2022-10-19T05:53:08.473Z,13.60
2022-10-19T05:55:36.477Z,13.59
2022-10-19T05:58:04.273Z,13.67
2022-10-19T06:00:31.549Z,13.64
2022-10-19T06:02:59.251Z,13.74
2022-10-19T06:05:27.093Z,13.80
2022-10-19T06:07:54.368Z,13.87
2022-10-19T06:10:21.693Z,13.99
2022-10-19T06:12:49.208Z,14.27
2022-10-19T06:15:16.967Z,14.38
2022-10-19T06:17:44.274Z,14.40
2022-10-19T06:20:11.912Z,14.42
2022-10-19T06:22:39.557Z,14.30
2022-10-19T06:25:07.144Z,14.28
2022-10-19T06:27:34.635Z,14.38
2022-10-19T06:30:02.921Z,14.47
2022-10-19T06:32:30.252Z,14.50
2022-10-19T06:34:57.460Z,14.56
2022-10-19T06:37:24.709Z,14.60
2022-10-19T06:39:53.339Z,14.57
2022-10-19T06:42:21.079Z,14.70
2022-10-19T06:44:48.395Z,14.76
2022-10-19T06:47:16.048Z,14.90
2022-10-19T06:49:44.262Z,15.12
2022-10-19T06:52:11.573Z,15.08
2022-10-19T06:54:39.388Z,14.87
2022-10-19T06:57:08.016Z,15.07
2022-10-19T06:59:35.265Z,15.27
2022-10-19T07:02:02.951Z,15.31
2022-10-19T07:04:30.275Z,15.10
2022-10-19T07:06:58.674Z,15.03
2022-10-19T07:09:26.187Z,15.29
2022-10-19T07:11:53.505Z,15.32
2022-10-19T07:14:21.333Z,15.39
2022-10-19T07:16:49.604Z,15.41
2022-10-19T07:19:17.633Z,15.58
2022-10-19T07:21:45.309Z,15.86
2022-10-19T07:24:12.615Z,15.53
2022-10-19T07:26:40.397Z,15.80
2022-10-19T07:29:08.174Z,15.80
2022-10-19T07:31:35.646Z,15.68
2022-10-19T07:34:05.682Z,15.60
2022-10-19T07:36:35.680Z,15.58
2022-10-19T07:39:06.276Z,15.85
2022-10-19T07:41:34.748Z,16.21
2022-10-19T07:44:02.935Z,16.15
2022-10-19T07:46:37.134Z,16.10
2022-10-19T07:49:09.703Z,16.27
2022-10-19T07:51:38.413Z,16.08
2022-10-19T07:54:07.144Z,15.92
2022-10-19T07:56:34.842Z,15.92
2022-10-19T07:59:04.833Z,16.22
2022-10-19T08:01:36.862Z,15.99
2022-10-19T08:06:52.009Z,16.32
2022-10-19T08:09:47.156Z,16.30
2022-10-19T08:12:07.259Z,16.81
2022-10-19T08:14:34.620Z,17.00
2022-10-19T08:17:01.944Z,16.98
2022-10-19T08:19:30.223Z,17.00
2022-10-19T08:21:57.968Z,17.14
2022-10-19T08:24:25.163Z,17.11
2022-10-19T08:26:52.407Z,17.20
2022-10-19T08:29:20.829Z,17.50
2022-10-19T08:31:49.361Z,17.66
2022-10-19T08:34:17.354Z,17.58
2022-10-19T08:36:45.166Z,17.60
2022-10-19T08:39:13.493Z,17.86
2022-10-19T08:41:41.311Z,18.31
2022-10-19T08:44:39.250Z,18.12
2022-10-19T08:47:18.496Z,17.94
2022-10-19T08:49:48.658Z,18.23
2022-10-19T08:52:21.299Z,18.78
2022-10-19T08:54:58.204Z,18.91
2022-10-19T08:57:53.304Z,18.30
2022-10-19T09:00:37.486Z,18.54
2022-10-19T09:03:37.526Z,18.97
2022-10-19T09:06:20.488Z,19.39
2022-10-19T09:08:50.400Z,19.66
2022-10-19T09:11:23.687Z,19.20
2022-10-19T09:14:04.663Z,19.50
2022-10-19T09:16:34.743Z,19.75
2022-10-19T09:19:04.165Z,19.58
2022-10-19T09:21:55.898Z,19.17
2022-10-19T09:24:41.916Z,19.54
2022-10-19T09:27:39.519Z,19.26
2022-10-19T09:30:16.844Z,19.31
2022-10-19T09:32:44.421Z,19.51
2022-10-19T09:35:36.351Z,19.42
2022-10-19T09:38:05.944Z,19.49
2022-10-19T09:40:35.189Z,19.64
2022-10-19T09:43:19.650Z,20.05
2022-10-19T09:46:19.945Z,20.59
2022-10-19T09:48:50.862Z,21.09
2022-10-19T09:51:19.697Z,21.29
2022-10-19T09:53:52.877Z,20.97
2022-10-19T09:56:23.152Z,20.69
2022-10-19T09:58:58.708Z,20.64
2022-10-19T10:01:41.421Z,20.54
2022-10-19T10:04:13.929Z,20.55
2022-10-19T10:06:42.937Z,20.60
2022-10-19T10:09:22.195Z,20.73
2022-10-19T10:11:51.886Z,21.30
2022-10-19T10:14:27.364Z,21.07
2022-10-19T10:16:56.964Z,21.17
2022-10-19T10:19:28.673Z,21.32
2022-10-19T10:21:58.629Z,21.35
2022-10-19T10:24:29.225Z,21.36
2022-10-19T10:27:03.662Z,21.94
2022-10-19T10:29:36.928Z,21.57
2022-10-19T10:32:08.935Z,21.57
2022-10-19T10:34:57.323Z,21.88
2022-10-19T10:37:41.728Z,22.06
2022-10-19T10:40:25.189Z,22.28
2022-10-19T10:42:55.155Z,22.40
2022-10-19T10:45:42.799Z,22.31
2022-10-19T10:48:53.645Z,22.18
2022-10-19T10:51:38.563Z,22.54
2022-10-19T10:54:18.282Z,22.57
2022-10-19T10:57:06.273Z,22.44
2022-10-19T10:59:45.764Z,22.13
2022-10-19T11:05:06.450Z,22.89
2022-10-19T11:07:36.086Z,23.24
2022-10-19T11:10:11.761Z,23.42
2022-10-19T11:12:43.997Z,22.93
2022-10-19T11:15:21.116Z,23.22
2022-10-19T11:17:57.482Z,23.12
2022-10-19T11:20:29.740Z,23.69
2022-10-19T11:23:19.554Z,23.60
2022-10-19T11:26:11.216Z,23.52
2022-10-19T11:28:41.529Z,23.76
2022-10-19T11:31:29.700Z,23.15
2022-10-19T11:34:18.629Z,23.55
2022-10-19T11:36:57.183Z,24.05
2022-10-19T11:39:25.123Z,24.43
2022-10-19T11:42:17.599Z,24.63
2022-10-19T11:45:11.554Z,24.50
2022-10-19T11:48:02.995Z,24.40
2022-10-19T11:50:54.252Z,24.57
2022-10-19T11:53:53.289Z,24.59
2022-10-19T11:56:44.706Z,24.91
2022-10-19T11:59:31.993Z,24.73
2022-10-19T12:02:38.127Z,24.77
2022-10-19T12:05:09.376Z,25.20
2022-10-19T12:07:36.543Z,25.08
2022-10-19T12:10:10.125Z,25.14
2022-10-19T12:12:44.660Z,25.20
2022-10-19T12:15:24.188Z,25.57
2022-10-19T12:17:54.767Z,25.39
2022-10-19T12:20:29.329Z,25.11
2022-10-19T12:22:59.777Z,24.95
2022-10-19T12:25:28.284Z,24.83
2022-10-19T12:27:57.093Z,25.14
2022-10-19T12:30:24.917Z,25.09
2022-10-19T12:32:55.065Z,25.42
2022-10-19T12:35:34.160Z,25.10
2022-10-19T12:38:14.972Z,25.91
2022-10-19T12:41:14.413Z,25.43
2022-10-19T12:44:11.669Z,25.34
2022-10-19T12:46:48.421Z,25.89
2022-10-19T12:49:31.073Z,26.04
2022-10-19T12:52:01.049Z,26.27
2022-10-19T12:54:31.815Z,26.03
2022-10-19T12:57:02.867Z,25.89
2022-10-19T12:59:37.014Z,26.09
2022-10-19T13:02:26.271Z,26.02
2022-10-19T13:04:54.251Z,25.99
2022-10-19T13:07:21.706Z,25.77
2022-10-19T13:09:50.376Z,26.02
2022-10-19T13:12:22.056Z,25.97
2022-10-19T13:14:54.595Z,25.47
2022-10-19T13:17:34.707Z,26.00
2022-10-19T13:20:14.573Z,26.28
2022-10-19T13:22:45.000Z,28.40
2022-10-19T13:25:30.765Z,33.37
2022-10-19T13:28:11.093Z,35.38
2022-10-19T13:30:38.654Z,37.18
2022-10-19T13:33:24.766Z,38.81
2022-10-19T13:36:02.191Z,39.78
2022-10-19T13:41:09.168Z,38.72
2022-10-19T13:44:01.104Z,40.84
2022-10-19T13:46:29.029Z,40.33
2022-10-19T13:48:59.816Z,39.36
2022-10-19T13:51:43.227Z,41.38
2022-10-19T13:54:18.421Z,40.81
2022-10-19T13:57:10.380Z,41.56
2022-10-19T14:00:01.878Z,42.78
2022-10-19T14:02:51.420Z,40.28
2022-10-19T14:05:22.416Z,40.99
2022-10-19T14:08:14.975Z,40.94
2022-10-19T14:11:00.044Z,39.32
2022-10-19T14:13:29.393Z,34.29
2022-10-19T14:16:00.203Z,32.33
2022-10-19T14:18:31.587Z,29.43
2022-10-19T14:20:58.816Z,29.61
2022-10-19T14:23:28.116Z,28.70
2022-10-19T14:26:01.449Z,28.60
2022-10-19T14:28:29.771Z,27.93
2022-10-19T14:31:09.264Z,27.98
2022-10-19T14:33:41.017Z,28.31
2022-10-19T14:36:16.351Z,27.92
2022-10-19T14:38:43.829Z,27.85
2022-10-19T14:41:26.233Z,27.81
2022-10-19T14:43:56.139Z,27.92
2022-10-19T14:46:33.941Z,27.20
2022-10-19T14:49:07.178Z,27.21
2022-10-19T14:51:46.727Z,26.40
2022-10-19T14:54:29.025Z,26.45
2022-10-19T14:57:01.235Z,26.74
2022-10-19T14:59:46.342Z,26.28
2022-10-19T15:02:22.859Z,26.25
2022-10-19T15:04:52.804Z,26.59
2022-10-19T15:07:40.772Z,26.91
2022-10-19T15:10:36.422Z,26.89
2022-10-19T15:13:07.185Z,26.99
2022-10-19T15:15:40.759Z,27.11
2022-10-19T15:18:25.316Z,29.10
2022-10-19T15:21:15.712Z,31.54
2022-10-19T15:23:46.144Z,31.10
2022-10-19T15:26:25.714Z,29.71
2022-10-19T15:28:54.794Z,28.73
2022-10-19T15:31:28.344Z,29.08
2022-10-19T15:33:59.089Z,29.04
2022-10-19T15:36:28.083Z,28.65
2022-10-19T15:39:06.290Z,29.13
2022-10-19T15:41:46.376Z,28.70
2022-10-19T15:44:40.432Z,27.94
2022-10-19T15:47:19.098Z,27.24
2022-10-19T15:49:47.010Z,26.73
2022-10-19T15:52:29.480Z,26.03
2022-10-19T15:54:59.008Z,25.87
2022-10-19T15:57:36.090Z,25.27
2022-10-19T16:00:23.715Z,24.96
2022-10-19T16:02:51.890Z,24.60
2022-10-19T16:05:19.572Z,24.28
2022-10-19T16:07:47.740Z,23.96
2022-10-19T16:10:20.752Z,23.80
2022-10-19T16:12:48.475Z,23.63
2022-10-19T16:15:22.363Z,23.39
2022-10-19T16:17:54.294Z,23.26
2022-10-19T16:20:22.946Z,23.07
2022-10-19T16:22:50.893Z,22.88
2022-10-19T16:25:18.841Z,22.72
2022-10-19T16:27:46.634Z,22.49
2022-10-19T16:30:14.936Z,22.27
2022-10-19T16:35:14.586Z,22.05
2022-10-19T16:37:41.872Z,22.01
2022-10-19T16:40:10.309Z,21.78
2022-10-19T16:42:38.152Z,21.58
2022-10-19T16:45:06.201Z,21.54
2022-10-19T16:47:33.475Z,21.40
2022-10-19T16:50:02.888Z,21.33
2022-10-19T16:52:34.427Z,21.28
2022-10-19T16:55:02.312Z,21.15
2022-10-19T16:57:29.746Z,21.09
2022-10-19T16:59:57.428Z,21.02
2022-10-19T17:02:25.053Z,20.92
2022-10-19T17:04:52.582Z,20.89
2022-10-19T17:07:20.555Z,20.82
2022-10-19T17:09:49.686Z,20.75
2022-10-19T17:12:19.845Z,20.66
2022-10-19T17:14:47.225Z,20.66
2022-10-19T17:17:14.728Z,20.57
2022-10-19T17:19:42.187Z,20.58
2022-10-19T17:22:10.043Z,20.60
2022-10-19T17:24:39.101Z,20.58
2022-10-19T17:27:07.277Z,20.47
2022-10-19T17:29:34.656Z,20.38
2022-10-19T17:32:01.864Z,20.34
2022-10-19T17:34:29.423Z,20.33
2022-10-19T17:36:56.986Z,20.24
2022-10-19T17:39:28.963Z,20.22
2022-10-19T17:42:03.267Z,20.26
2022-10-19T17:44:31.706Z,20.14
2022-10-19T17:47:00.365Z,20.11
2022-10-19T17:49:30.116Z,20.07
2022-10-19T17:51:59.021Z,19.95
2022-10-19T17:54:26.534Z,19.95
2022-10-19T17:56:54.397Z,19.88
2022-10-19T17:59:30.302Z,19.85
2022-10-19T18:02:03.940Z,19.80
2022-10-19T18:04:31.298Z,19.63
2022-10-19T18:06:58.580Z,19.54
2022-10-19T18:09:25.968Z,19.60
2022-10-19T18:11:54.170Z,19.60
2022-10-19T18:14:22.687Z,19.52
2022-10-19T18:16:51.951Z,19.37
2022-10-19T18:19:19.871Z,19.24
2022-10-19T18:21:47.774Z,19.28
2022-10-19T18:24:19.813Z,19.23
2022-10-19T18:26:48.713Z,19.16
2022-10-19T18:29:22.938Z,19.09
2022-10-19T18:31:53.951Z,19.06
2022-10-19T18:34:24.448Z,18.99
2022-10-19T18:36:52.800Z,18.86
2022-10-19T18:39:21.336Z,18.78
2022-10-19T18:41:55.441Z,18.55
2022-10-19T18:44:27.113Z,18.66
2022-10-19T18:46:56.957Z,18.63
2022-10-19T18:49:25.139Z,18.51
2022-10-19T18:51:55.358Z,18.46
2022-10-19T18:54:26.262Z,18.53
2022-10-19T18:56:54.731Z,18.51
2022-10-19T18:59:22.555Z,18.44
2022-10-19T19:01:50.178Z,18.45
2022-10-19T19:04:18.473Z,18.41
2022-10-19T19:06:45.826Z,18.35
2022-10-19T19:09:13.419Z,18.28
2022-10-19T19:11:42.009Z,18.28
2022-10-19T19:14:21.076Z,18.27
2022-10-19T19:16:48.753Z,18.27
2022-10-19T19:19:18.975Z,18.24
2022-10-19T19:21:47.381Z,18.17
2022-10-19T19:24:21.936Z,18.07
2022-10-19T19:26:53.006Z,18.08
2022-10-19T19:29:22.373Z,18.15
2022-10-19T19:31:51.290Z,18.07
2022-10-19T19:34:18.744Z,18.05
2022-10-19T19:36:48.413Z,18.00
2022-10-19T19:39:19.458Z,18.10
2022-10-19T19:41:48.977Z,18.25
2022-10-19T19:44:17.398Z,18.09
2022-10-19T19:46:46.149Z,18.10
2022-10-19T19:49:14.403Z,17.97
2022-10-19T19:51:42.395Z,17.96
2022-10-19T19:54:09.850Z,17.77
2022-10-19T19:56:37.467Z,17.66
2022-10-19T19:59:05.101Z,17.64
2022-10-19T20:01:32.601Z,17.55
2022-10-19T20:06:36.976Z,17.47
2022-10-19T20:09:05.626Z,17.53
2022-10-19T20:11:33.096Z,17.58
2022-10-19T20:14:00.977Z,17.59
2022-10-19T20:16:34.265Z,17.53
2022-10-19T20:19:07.412Z,17.47
2022-10-19T20:21:34.725Z,17.38
2022-10-19T20:24:02.629Z,17.47
2022-10-19T20:26:30.451Z,17.61
2022-10-19T20:28:58.855Z,17.78
2022-10-19T20:31:26.409Z,17.51
2022-10-19T20:33:54.368Z,17.56
2022-10-19T20:36:24.082Z,17.55
2022-10-19T20:38:54.367Z,17.46
2022-10-19T20:41:24.351Z,17.40
2022-10-19T20:43:53.662Z,17.51
2022-10-19T20:46:24.796Z,17.47
2022-10-19T20:48:53.025Z,17.48
2022-10-19T20:51:24.768Z,17.60
2022-10-19T20:53:56.591Z,17.47
2022-10-19T20:56:26.865Z,17.42
